sensor_id;sensor_type;location;lat;lon;timestamp;P1;durP1;ratioP1;P2;durP2;ratioP2
38994;SDS011;24769;18.712;99.000;2023-04-30T00:00:01;76.00;;;70.50;;
38994;SDS011;24769;18.712;99.000;2023-04-30T00:02:32;77.75;;;75.50;;
38994;SDS011;24769;18.712;99.000;2023-04-30T00:04:59;78.50;;;75.00;;
38994;SDS011;24769;18.712;99.000;2023-04-30T00:07:25;78.25;;;75.50;;
38994;SDS011;24769;18.712;99.000;2023-04-30T00:09:52;77.00;;;73.00;;
38994;SDS011;24769;18.712;99.000;2023-04-30T00:12:19;77.25;;;74.25;;
38994;SDS011;24769;18.712;99.000;2023-04-30T00:14:45;75.50;;;71.25;;
38994;SDS011;24769;18.712;99.000;2023-04-30T00:17:13;77.25;;;73.50;;
38994;SDS011;24769;18.712;99.000;2023-04-30T00:19:40;77.25;;;73.25;;
38994;SDS011;24769;18.712;99.000;2023-04-30T00:22:07;84.25;;;84.25;;
38994;SDS011;24769;18.712;99.000;2023-04-30T00:24:34;87.25;;;87.25;;
38994;SDS011;24769;18.712;99.000;2023-04-30T00:27:01;79.75;;;77.50;;
38994;SDS011;24769;18.712;99.000;2023-04-30T00:29:27;77.00;;;73.75;;
38994;SDS011;24769;18.712;99.000;2023-04-30T00:31:54;77.75;;;75.25;;
38994;SDS011;24769;18.712;99.000;2023-04-30T00:34:21;76.00;;;71.50;;
38994;SDS011;24769;18.712;99.000;2023-04-30T00:36:47;76.25;;;71.50;;
38994;SDS011;24769;18.712;99.000;2023-04-30T00:39:14;75.50;;;70.50;;
38994;SDS011;24769;18.712;99.000;2023-04-30T00:41:41;74.50;;;69.25;;
38994;SDS011;24769;18.712;99.000;2023-04-30T00:44:08;72.75;;;66.00;;
38994;SDS011;24769;18.712;99.000;2023-04-30T00:46:34;76.25;;;71.75;;
38994;SDS011;24769;18.712;99.000;2023-04-30T00:49:01;75.50;;;71.50;;
38994;SDS011;24769;18.712;99.000;2023-04-30T00:51:30;75.00;;;70.00;;
38994;SDS011;24769;18.712;99.000;2023-04-30T00:54:01;75.00;;;70.75;;
38994;SDS011;24769;18.712;99.000;2023-04-30T00:56:28;73.00;;;65.25;;
38994;SDS011;24769;18.712;99.000;2023-04-30T00:58:56;73.00;;;66.75;;
38994;SDS011;24769;18.712;99.000;2023-04-30T01:01:23;76.25;;;72.00;;
38994;SDS011;24769;18.712;99.000;2023-04-30T01:03:53;74.25;;;69.00;;
38994;SDS011;24769;18.712;99.000;2023-04-30T01:06:20;78.00;;;76.00;;
38994;SDS011;24769;18.712;99.000;2023-04-30T01:08:47;75.75;;;71.00;;
38994;SDS011;24769;18.712;99.000;2023-04-30T01:14:27;74.00;;;70.00;;
38994;SDS011;24769;18.712;99.000;2023-04-30T01:17:04;75.25;;;72.50;;
38994;SDS011;24769;18.712;99.000;2023-04-30T01:22:04;66.00;;;56.20;;
38994;SDS011;24769;18.712;99.000;2023-04-30T01:24:44;71.75;;;64.00;;
38994;SDS011;24769;18.712;99.000;2023-04-30T01:30:10;70.75;;;63.50;;
38994;SDS011;24769;18.712;99.000;2023-04-30T01:32:37;69.60;;;60.80;;
38994;SDS011;24769;18.712;99.000;2023-04-30T01:35:04;63.60;;;52.00;;
38994;SDS011;24769;18.712;99.000;2023-04-30T01:40:23;66.40;;;56.60;;
38994;SDS011;24769;18.712;99.000;2023-04-30T01:51:52;66.60;;;57.40;;
38994;SDS011;24769;18.712;99.000;2023-04-30T01:57:40;68.80;;;60.00;;
38994;SDS011;24769;18.712;99.000;2023-04-30T02:00:11;67.80;;;59.00;;
38994;SDS011;24769;18.712;99.000;2023-04-30T02:02:42;66.00;;;55.80;;
38994;SDS011;24769;18.712;99.000;2023-04-30T02:05:08;70.80;;;63.80;;
38994;SDS011;24769;18.712;99.000;2023-04-30T02:07:39;69.60;;;61.80;;
38994;SDS011;24769;18.712;99.000;2023-04-30T02:10:08;70.40;;;62.60;;
38994;SDS011;24769;18.712;99.000;2023-04-30T02:12:38;66.00;;;56.20;;
38994;SDS011;24769;18.712;99.000;2023-04-30T02:15:05;65.60;;;55.00;;
38994;SDS011;24769;18.712;99.000;2023-04-30T02:17:33;63.80;;;52.40;;
38994;SDS011;24769;18.712;99.000;2023-04-30T02:20:00;67.00;;;58.00;;
38994;SDS011;24769;18.712;99.000;2023-04-30T02:22:26;66.80;;;58.40;;
38994;SDS011;24769;18.712;99.000;2023-04-30T02:24:53;65.00;;;55.80;;
38994;SDS011;24769;18.712;99.000;2023-04-30T02:27:20;63.40;;;53.00;;
38994;SDS011;24769;18.712;99.000;2023-04-30T02:29:49;63.40;;;53.20;;
38994;SDS011;24769;18.712;99.000;2023-04-30T02:32:16;67.60;;;58.80;;
38994;SDS011;24769;18.712;99.000;2023-04-30T02:34:43;62.60;;;51.80;;
38994;SDS011;24769;18.712;99.000;2023-04-30T02:37:10;67.60;;;59.00;;
38994;SDS011;24769;18.712;99.000;2023-04-30T02:39:36;64.00;;;54.00;;
38994;SDS011;24769;18.712;99.000;2023-04-30T02:42:03;64.20;;;54.20;;
38994;SDS011;24769;18.712;99.000;2023-04-30T02:44:31;62.00;;;51.00;;
38994;SDS011;24769;18.712;99.000;2023-04-30T02:46:59;62.40;;;51.40;;
38994;SDS011;24769;18.712;99.000;2023-04-30T02:49:27;60.80;;;50.00;;
38994;SDS011;24769;18.712;99.000;2023-04-30T02:51:54;65.00;;;55.20;;
38994;SDS011;24769;18.712;99.000;2023-04-30T02:54:20;63.00;;;52.00;;
38994;SDS011;24769;18.712;99.000;2023-04-30T02:56:47;64.00;;;54.00;;
38994;SDS011;24769;18.712;99.000;2023-04-30T02:59:14;61.60;;;50.40;;
38994;SDS011;24769;18.712;99.000;2023-04-30T03:01:41;61.20;;;49.80;;
38994;SDS011;24769;18.712;99.000;2023-04-30T03:04:07;58.60;;;48.40;;
38994;SDS011;24769;18.712;99.000;2023-04-30T03:06:34;59.60;;;49.00;;
38994;SDS011;24769;18.712;99.000;2023-04-30T03:09:03;58.60;;;48.80;;
38994;SDS011;24769;18.712;99.000;2023-04-30T03:11:29;60.60;;;49.80;;
38994;SDS011;24769;18.712;99.000;2023-04-30T03:13:58;60.60;;;50.60;;
38994;SDS011;24769;18.712;99.000;2023-04-30T03:16:24;55.80;;;46.60;;
38994;SDS011;24769;18.712;99.000;2023-04-30T03:18:51;59.00;;;48.60;;
38994;SDS011;24769;18.712;99.000;2023-04-30T03:21:17;61.40;;;51.40;;
38994;SDS011;24769;18.712;99.000;2023-04-30T03:23:44;57.20;;;48.00;;
38994;SDS011;24769;18.712;99.000;2023-04-30T03:26:11;57.60;;;48.20;;
38994;SDS011;24769;18.712;99.000;2023-04-30T03:28:37;57.20;;;47.60;;
38994;SDS011;24769;18.712;99.000;2023-04-30T03:31:04;61.80;;;51.60;;
38994;SDS011;24769;18.712;99.000;2023-04-30T03:33:31;58.20;;;48.60;;
38994;SDS011;24769;18.712;99.000;2023-04-30T03:35:58;60.20;;;49.60;;
38994;SDS011;24769;18.712;99.000;2023-04-30T03:38:25;61.40;;;50.40;;
38994;SDS011;24769;18.712;99.000;2023-04-30T03:40:52;56.60;;;47.40;;
38994;SDS011;24769;18.712;99.000;2023-04-30T03:43:18;57.40;;;47.80;;
38994;SDS011;24769;18.712;99.000;2023-04-30T03:45:46;54.60;;;45.60;;
38994;SDS011;24769;18.712;99.000;2023-04-30T03:48:13;56.40;;;47.00;;
38994;SDS011;24769;18.712;99.000;2023-04-30T03:50:40;55.60;;;46.00;;
38994;SDS011;24769;18.712;99.000;2023-04-30T03:53:07;55.00;;;45.80;;
38994;SDS011;24769;18.712;99.000;2023-04-30T03:55:33;56.40;;;47.00;;
38994;SDS011;24769;18.712;99.000;2023-04-30T03:58:00;58.60;;;48.40;;
38994;SDS011;24769;18.712;99.000;2023-04-30T04:00:27;58.20;;;49.00;;
38994;SDS011;24769;18.712;99.000;2023-04-30T04:02:56;59.20;;;48.60;;
38994;SDS011;24769;18.712;99.000;2023-04-30T04:05:23;60.00;;;49.40;;
38994;SDS011;24769;18.712;99.000;2023-04-30T04:07:51;58.60;;;48.40;;
38994;SDS011;24769;18.712;99.000;2023-04-30T04:10:17;58.80;;;49.20;;
38994;SDS011;24769;18.712;99.000;2023-04-30T04:12:44;58.60;;;48.20;;
38994;SDS011;24769;18.712;99.000;2023-04-30T04:15:11;59.60;;;49.00;;
38994;SDS011;24769;18.712;99.000;2023-04-30T04:17:37;55.40;;;46.20;;
38994;SDS011;24769;18.712;99.000;2023-04-30T04:20:04;50.80;;;43.00;;
38994;SDS011;24769;18.712;99.000;2023-04-30T04:22:32;53.60;;;45.00;;
38994;SDS011;24769;18.712;99.000;2023-04-30T04:24:58;56.40;;;46.80;;
38994;SDS011;24769;18.712;99.000;2023-04-30T04:27:25;57.00;;;47.20;;
38994;SDS011;24769;18.712;99.000;2023-04-30T04:29:52;55.80;;;46.80;;
38994;SDS011;24769;18.712;99.000;2023-04-30T04:32:19;56.60;;;47.80;;
38994;SDS011;24769;18.712;99.000;2023-04-30T04:34:47;54.80;;;45.80;;
38994;SDS011;24769;18.712;99.000;2023-04-30T04:37:13;56.40;;;47.00;;
38994;SDS011;24769;18.712;99.000;2023-04-30T04:39:41;57.00;;;48.00;;
38994;SDS011;24769;18.712;99.000;2023-04-30T04:42:09;57.00;;;47.20;;
38994;SDS011;24769;18.712;99.000;2023-04-30T04:44:36;57.20;;;47.00;;
38994;SDS011;24769;18.712;99.000;2023-04-30T04:47:03;55.40;;;46.20;;
38994;SDS011;24769;18.712;99.000;2023-04-30T04:49:30;56.20;;;47.00;;
38994;SDS011;24769;18.712;99.000;2023-04-30T04:51:57;56.20;;;47.20;;
38994;SDS011;24769;18.712;99.000;2023-04-30T04:54:24;56.00;;;47.00;;
38994;SDS011;24769;18.712;99.000;2023-04-30T04:56:50;53.00;;;45.00;;
38994;SDS011;24769;18.712;99.000;2023-04-30T04:59:17;52.00;;;44.20;;
38994;SDS011;24769;18.712;99.000;2023-04-30T05:01:44;54.60;;;46.00;;
38994;SDS011;24769;18.712;99.000;2023-04-30T05:04:10;50.00;;;42.80;;
38994;SDS011;24769;18.712;99.000;2023-04-30T05:06:38;54.80;;;46.00;;
38994;SDS011;24769;18.712;99.000;2023-04-30T05:09:06;54.80;;;46.00;;
38994;SDS011;24769;18.712;99.000;2023-04-30T05:11:34;53.20;;;45.00;;
38994;SDS011;24769;18.712;99.000;2023-04-30T05:14:01;51.80;;;43.80;;
38994;SDS011;24769;18.712;99.000;2023-04-30T05:16:28;53.80;;;45.00;;
38994;SDS011;24769;18.712;99.000;2023-04-30T05:18:54;52.20;;;44.40;;
38994;SDS011;24769;18.712;99.000;2023-04-30T05:21:21;55.00;;;45.40;;
38994;SDS011;24769;18.712;99.000;2023-04-30T05:23:48;50.40;;;42.80;;
38994;SDS011;24769;18.712;99.000;2023-04-30T05:26:14;54.00;;;45.20;;
38994;SDS011;24769;18.712;99.000;2023-04-30T05:28:41;49.40;;;42.40;;
38994;SDS011;24769;18.712;99.000;2023-04-30T05:31:08;53.60;;;45.00;;
38994;SDS011;24769;18.712;99.000;2023-04-30T05:33:34;50.80;;;43.00;;
38994;SDS011;24769;18.712;99.000;2023-04-30T05:36:01;50.40;;;42.60;;
38994;SDS011;24769;18.712;99.000;2023-04-30T05:38:28;52.60;;;44.80;;
38994;SDS011;24769;18.712;99.000;2023-04-30T05:40:54;50.60;;;42.80;;
38994;SDS011;24769;18.712;99.000;2023-04-30T05:43:21;54.40;;;45.60;;
38994;SDS011;24769;18.712;99.000;2023-04-30T05:45:48;49.40;;;42.60;;
38994;SDS011;24769;18.712;99.000;2023-04-30T05:48:15;52.60;;;44.60;;
38994;SDS011;24769;18.712;99.000;2023-04-30T05:50:41;47.80;;;41.00;;
38994;SDS011;24769;18.712;99.000;2023-04-30T05:53:08;49.80;;;43.00;;
38994;SDS011;24769;18.712;99.000;2023-04-30T05:55:34;45.40;;;39.40;;
38994;SDS011;24769;18.712;99.000;2023-04-30T05:58:01;51.20;;;43.40;;
38994;SDS011;24769;18.712;99.000;2023-04-30T06:00:28;46.60;;;40.20;;
38994;SDS011;24769;18.712;99.000;2023-04-30T06:02:55;48.80;;;41.60;;
38994;SDS011;24769;18.712;99.000;2023-04-30T06:05:22;47.80;;;40.80;;
38994;SDS011;24769;18.712;99.000;2023-04-30T06:07:49;48.20;;;41.60;;
38994;SDS011;24769;18.712;99.000;2023-04-30T06:10:15;45.80;;;39.60;;
38994;SDS011;24769;18.712;99.000;2023-04-30T06:12:42;48.60;;;42.20;;
38994;SDS011;24769;18.712;99.000;2023-04-30T06:15:09;45.60;;;39.60;;
38994;SDS011;24769;18.712;99.000;2023-04-30T06:17:35;48.00;;;40.60;;
38994;SDS011;24769;18.712;99.000;2023-04-30T06:20:02;46.20;;;40.00;;
38994;SDS011;24769;18.712;99.000;2023-04-30T06:22:31;46.20;;;39.20;;
38994;SDS011;24769;18.712;99.000;2023-04-30T06:24:58;47.00;;;40.00;;
38994;SDS011;24769;18.712;99.000;2023-04-30T06:27:25;44.00;;;38.00;;
38994;SDS011;24769;18.712;99.000;2023-04-30T06:29:52;47.20;;;40.40;;
38994;SDS011;24769;18.712;99.000;2023-04-30T06:32:19;46.00;;;39.60;;
38994;SDS011;24769;18.712;99.000;2023-04-30T06:34:46;46.40;;;40.00;;
38994;SDS011;24769;18.712;99.000;2023-04-30T06:37:12;46.60;;;39.80;;
38994;SDS011;24769;18.712;99.000;2023-04-30T06:39:39;47.00;;;40.40;;
38994;SDS011;24769;18.712;99.000;2023-04-30T06:42:06;35.20;;;32.60;;
38994;SDS011;24769;18.712;99.000;2023-04-30T06:44:32;44.40;;;38.40;;
38994;SDS011;24769;18.712;99.000;2023-04-30T06:46:59;45.80;;;39.20;;
38994;SDS011;24769;18.712;99.000;2023-04-30T06:49:26;49.40;;;42.40;;
38994;SDS011;24769;18.712;99.000;2023-04-30T06:51:53;41.80;;;36.80;;
38994;SDS011;24769;18.712;99.000;2023-04-30T06:54:23;41.20;;;35.80;;
38994;SDS011;24769;18.712;99.000;2023-04-30T06:56:51;42.40;;;37.00;;
38994;SDS011;24769;18.712;99.000;2023-04-30T06:59:18;48.00;;;40.40;;
38994;SDS011;24769;18.712;99.000;2023-04-30T07:04:11;46.80;;;40.00;;
38994;SDS011;24769;18.712;99.000;2023-04-30T07:06:38;45.00;;;38.40;;
38994;SDS011;24769;18.712;99.000;2023-04-30T07:09:04;46.20;;;40.00;;
38994;SDS011;24769;18.712;99.000;2023-04-30T07:11:31;46.60;;;40.00;;
38994;SDS011;24769;18.712;99.000;2023-04-30T07:13:58;44.00;;;38.00;;
38994;SDS011;24769;18.712;99.000;2023-04-30T07:16:25;45.20;;;38.80;;
38994;SDS011;24769;18.712;99.000;2023-04-30T07:18:52;47.60;;;40.60;;
38994;SDS011;24769;18.712;99.000;2023-04-30T07:21:18;48.40;;;41.20;;
38994;SDS011;24769;18.712;99.000;2023-04-30T07:23:46;43.80;;;37.80;;
38994;SDS011;24769;18.712;99.000;2023-04-30T07:26:15;45.60;;;39.40;;
38994;SDS011;24769;18.712;99.000;2023-04-30T07:28:42;43.20;;;37.40;;
38994;SDS011;24769;18.712;99.000;2023-04-30T07:31:11;43.80;;;38.00;;
38994;SDS011;24769;18.712;99.000;2023-04-30T07:33:38;38.80;;;34.40;;
38994;SDS011;24769;18.712;99.000;2023-04-30T07:36:04;39.00;;;34.80;;
38994;SDS011;24769;18.712;99.000;2023-04-30T07:38:31;43.00;;;37.40;;
38994;SDS011;24769;18.712;99.000;2023-04-30T07:40:58;46.20;;;39.60;;
38994;SDS011;24769;18.712;99.000;2023-04-30T07:43:26;41.00;;;35.80;;
38994;SDS011;24769;18.712;99.000;2023-04-30T07:45:53;43.60;;;37.60;;
38994;SDS011;24769;18.712;99.000;2023-04-30T07:48:19;40.60;;;35.80;;
38994;SDS011;24769;18.712;99.000;2023-04-30T07:50:46;42.20;;;37.00;;
38994;SDS011;24769;18.712;99.000;2023-04-30T07:53:13;36.60;;;33.40;;
38994;SDS011;24769;18.712;99.000;2023-04-30T07:55:40;42.20;;;37.00;;
38994;SDS011;24769;18.712;99.000;2023-04-30T07:58:06;34.80;;;32.20;;
38994;SDS011;24769;18.712;99.000;2023-04-30T08:00:33;41.40;;;36.20;;
38994;SDS011;24769;18.712;99.000;2023-04-30T08:03:00;42.20;;;36.60;;
38994;SDS011;24769;18.712;99.000;2023-04-30T08:05:26;40.20;;;35.20;;
38994;SDS011;24769;18.712;99.000;2023-04-30T08:07:53;44.20;;;38.00;;
38994;SDS011;24769;18.712;99.000;2023-04-30T08:10:20;43.00;;;37.20;;
38994;SDS011;24769;18.712;99.000;2023-04-30T08:12:47;43.00;;;37.40;;
38994;SDS011;24769;18.712;99.000;2023-04-30T08:15:13;39.00;;;34.80;;
38994;SDS011;24769;18.712;99.000;2023-04-30T08:17:40;40.20;;;35.40;;
38994;SDS011;24769;18.712;99.000;2023-04-30T08:20:07;40.00;;;35.20;;
38994;SDS011;24769;18.712;99.000;2023-04-30T08:22:34;42.00;;;36.60;;
38994;SDS011;24769;18.712;99.000;2023-04-30T08:25:00;38.20;;;34.20;;
38994;SDS011;24769;18.712;99.000;2023-04-30T08:27:29;37.40;;;33.40;;
38994;SDS011;24769;18.712;99.000;2023-04-30T08:29:56;43.00;;;37.20;;
38994;SDS011;24769;18.712;99.000;2023-04-30T08:32:23;43.80;;;37.80;;
38994;SDS011;24769;18.712;99.000;2023-04-30T08:34:50;39.80;;;35.00;;
38994;SDS011;24769;18.712;99.000;2023-04-30T08:37:17;43.80;;;37.80;;
38994;SDS011;24769;18.712;99.000;2023-04-30T08:39:43;41.40;;;36.20;;
38994;SDS011;24769;18.712;99.000;2023-04-30T08:42:11;42.60;;;37.00;;
38994;SDS011;24769;18.712;99.000;2023-04-30T08:44:39;39.20;;;34.60;;
38994;SDS011;24769;18.712;99.000;2023-04-30T08:47:10;42.00;;;36.60;;
38994;SDS011;24769;18.712;99.000;2023-04-30T08:49:39;39.20;;;35.00;;
38994;SDS011;24769;18.712;99.000;2023-04-30T08:52:06;40.00;;;35.60;;
38994;SDS011;24769;18.712;99.000;2023-04-30T08:54:34;43.80;;;37.60;;
38994;SDS011;24769;18.712;99.000;2023-04-30T08:57:01;41.20;;;36.60;;
38994;SDS011;24769;18.712;99.000;2023-04-30T08:59:29;40.40;;;35.60;;
38994;SDS011;24769;18.712;99.000;2023-04-30T09:01:55;41.20;;;36.20;;
38994;SDS011;24769;18.712;99.000;2023-04-30T09:04:25;40.80;;;35.80;;
38994;SDS011;24769;18.712;99.000;2023-04-30T09:06:52;38.40;;;34.40;;
38994;SDS011;24769;18.712;99.000;2023-04-30T09:09:28;41.40;;;36.00;;
38994;SDS011;24769;18.712;99.000;2023-04-30T09:12:12;41.60;;;36.40;;
38994;SDS011;24769;18.712;99.000;2023-04-30T09:15:03;36.40;;;33.40;;
38994;SDS011;24769;18.712;99.000;2023-04-30T09:17:30;40.40;;;35.20;;
38994;SDS011;24769;18.712;99.000;2023-04-30T09:22:34;44.00;;;38.00;;
38994;SDS011;24769;18.712;99.000;2023-04-30T09:25:02;43.40;;;37.40;;
38994;SDS011;24769;18.712;99.000;2023-04-30T09:27:28;41.20;;;36.40;;
38994;SDS011;24769;18.712;99.000;2023-04-30T09:29:55;44.40;;;38.00;;
38994;SDS011;24769;18.712;99.000;2023-04-30T09:32:22;43.60;;;37.80;;
38994;SDS011;24769;18.712;99.000;2023-04-30T09:34:48;43.60;;;37.80;;
38994;SDS011;24769;18.712;99.000;2023-04-30T09:37:15;44.20;;;38.20;;
38994;SDS011;24769;18.712;99.000;2023-04-30T09:39:56;35.60;;;32.60;;
38994;SDS011;24769;18.712;99.000;2023-04-30T09:42:22;46.80;;;40.00;;
38994;SDS011;24769;18.712;99.000;2023-04-30T09:44:50;42.80;;;37.20;;
38994;SDS011;24769;18.712;99.000;2023-04-30T09:47:19;42.20;;;37.00;;
38994;SDS011;24769;18.712;99.000;2023-04-30T09:49:49;47.20;;;40.60;;
38994;SDS011;24769;18.712;99.000;2023-04-30T09:52:16;45.20;;;38.80;;
38994;SDS011;24769;18.712;99.000;2023-04-30T09:54:44;45.60;;;39.80;;
38994;SDS011;24769;18.712;99.000;2023-04-30T09:57:13;44.80;;;39.00;;
38994;SDS011;24769;18.712;99.000;2023-04-30T09:59:44;39.40;;;35.00;;
38994;SDS011;24769;18.712;99.000;2023-04-30T10:02:14;48.20;;;41.60;;
38994;SDS011;24769;18.712;99.000;2023-04-30T10:04:43;51.60;;;43.80;;
38994;SDS011;24769;18.712;99.000;2023-04-30T10:09:50;44.80;;;38.80;;
38994;SDS011;24769;18.712;99.000;2023-04-30T10:12:50;47.00;;;40.40;;
38994;SDS011;24769;18.712;99.000;2023-04-30T10:15:20;45.00;;;39.00;;
38994;SDS011;24769;18.712;99.000;2023-04-30T10:18:01;37.00;;;34.00;;
38994;SDS011;24769;18.712;99.000;2023-04-30T10:20:34;36.00;;;33.00;;
38994;SDS011;24769;18.712;99.000;2023-04-30T10:23:04;36.40;;;33.20;;
38994;SDS011;24769;18.712;99.000;2023-04-30T10:25:31;32.80;;;31.20;;
38994;SDS011;24769;18.712;99.000;2023-04-30T10:27:58;32.80;;;31.40;;
38994;SDS011;24769;18.712;99.000;2023-04-30T10:30:25;38.80;;;34.60;;
38994;SDS011;24769;18.712;99.000;2023-04-30T10:36:00;41.80;;;36.80;;
38994;SDS011;24769;18.712;99.000;2023-04-30T10:38:37;46.80;;;40.20;;
38994;SDS011;24769;18.712;99.000;2023-04-30T10:41:05;44.60;;;38.60;;
38994;SDS011;24769;18.712;99.000;2023-04-30T10:43:34;47.20;;;40.40;;
38994;SDS011;24769;18.712;99.000;2023-04-30T10:46:01;45.60;;;39.00;;
38994;SDS011;24769;18.712;99.000;2023-04-30T10:48:29;47.20;;;40.60;;
38994;SDS011;24769;18.712;99.000;2023-04-30T10:51:00;46.60;;;40.20;;
38994;SDS011;24769;18.712;99.000;2023-04-30T10:53:29;46.60;;;40.00;;
38994;SDS011;24769;18.712;99.000;2023-04-30T10:55:57;50.40;;;43.00;;
38994;SDS011;24769;18.712;99.000;2023-04-30T10:58:31;48.60;;;41.60;;
38994;SDS011;24769;18.712;99.000;2023-04-30T11:03:29;46.60;;;40.40;;
38994;SDS011;24769;18.712;99.000;2023-04-30T11:05:57;43.00;;;37.60;;
38994;SDS011;24769;18.712;99.000;2023-04-30T11:08:33;44.60;;;38.60;;
38994;SDS011;24769;18.712;99.000;2023-04-30T11:11:04;46.00;;;39.60;;
38994;SDS011;24769;18.712;99.000;2023-04-30T11:13:43;46.20;;;40.00;;
38994;SDS011;24769;18.712;99.000;2023-04-30T11:16:11;42.80;;;36.80;;
38994;SDS011;24769;18.712;99.000;2023-04-30T11:18:43;44.60;;;38.60;;
38994;SDS011;24769;18.712;99.000;2023-04-30T11:21:11;44.60;;;38.80;;
38994;SDS011;24769;18.712;99.000;2023-04-30T11:23:41;41.60;;;36.60;;
38994;SDS011;24769;18.712;99.000;2023-04-30T11:26:08;36.40;;;33.40;;
38994;SDS011;24769;18.712;99.000;2023-04-30T11:28:36;41.00;;;35.80;;
38994;SDS011;24769;18.712;99.000;2023-04-30T11:31:03;37.20;;;34.20;;
38994;SDS011;24769;18.712;99.000;2023-04-30T11:33:32;42.80;;;37.60;;
38994;SDS011;24769;18.712;99.000;2023-04-30T11:36:00;39.20;;;35.40;;
38994;SDS011;24769;18.712;99.000;2023-04-30T11:38:28;41.20;;;36.60;;
38994;SDS011;24769;18.712;99.000;2023-04-30T11:41:04;40.00;;;35.60;;
38994;SDS011;24769;18.712;99.000;2023-04-30T11:43:31;41.60;;;36.80;;
38994;SDS011;24769;18.712;99.000;2023-04-30T11:48:36;47.20;;;40.60;;
38994;SDS011;24769;18.712;99.000;2023-04-30T11:51:21;41.80;;;36.80;;
38994;SDS011;24769;18.712;99.000;2023-04-30T11:53:49;40.60;;;36.00;;
38994;SDS011;24769;18.712;99.000;2023-04-30T11:56:20;43.40;;;38.20;;
38994;SDS011;24769;18.712;99.000;2023-04-30T11:58:49;40.00;;;35.60;;
38994;SDS011;24769;18.712;99.000;2023-04-30T12:01:20;43.20;;;38.00;;
38994;SDS011;24769;18.712;99.000;2023-04-30T12:03:50;40.60;;;36.00;;
38994;SDS011;24769;18.712;99.000;2023-04-30T12:08:53;40.80;;;36.00;;
38994;SDS011;24769;18.712;99.000;2023-04-30T12:11:21;42.20;;;37.20;;
38994;SDS011;24769;18.712;99.000;2023-04-30T12:16:20;45.00;;;38.20;;
38994;SDS011;24769;18.712;99.000;2023-04-30T12:18:48;41.20;;;36.40;;
38994;SDS011;24769;18.712;99.000;2023-04-30T12:21:16;43.20;;;37.60;;
38994;SDS011;24769;18.712;99.000;2023-04-30T12:23:43;38.00;;;34.60;;
38994;SDS011;24769;18.712;99.000;2023-04-30T12:26:09;40.00;;;35.60;;
38994;SDS011;24769;18.712;99.000;2023-04-30T12:28:36;44.00;;;38.00;;
38994;SDS011;24769;18.712;99.000;2023-04-30T12:31:03;44.00;;;38.20;;
38994;SDS011;24769;18.712;99.000;2023-04-30T12:33:30;45.00;;;39.00;;
38994;SDS011;24769;18.712;99.000;2023-04-30T12:35:57;44.20;;;38.20;;
38994;SDS011;24769;18.712;99.000;2023-04-30T12:38:23;45.80;;;39.60;;
38994;SDS011;24769;18.712;99.000;2023-04-30T12:40:50;43.60;;;37.60;;
38994;SDS011;24769;18.712;99.000;2023-04-30T12:43:17;44.40;;;38.40;;
38994;SDS011;24769;18.712;99.000;2023-04-30T12:48:16;46.40;;;40.20;;
38994;SDS011;24769;18.712;99.000;2023-04-30T12:50:51;49.00;;;42.00;;
38994;SDS011;24769;18.712;99.000;2023-04-30T12:53:19;46.40;;;40.00;;
38994;SDS011;24769;18.712;99.000;2023-04-30T12:58:33;47.60;;;41.00;;
38994;SDS011;24769;18.712;99.000;2023-04-30T13:01:00;50.40;;;43.40;;
38994;SDS011;24769;18.712;99.000;2023-04-30T13:03:27;50.20;;;42.20;;
38994;SDS011;24769;18.712;99.000;2023-04-30T13:05:53;47.00;;;40.80;;
38994;SDS011;24769;18.712;99.000;2023-04-30T13:08:20;46.80;;;40.20;;
38994;SDS011;24769;18.712;99.000;2023-04-30T13:10:47;49.00;;;41.60;;
38994;SDS011;24769;18.712;99.000;2023-04-30T13:13:14;50.40;;;43.20;;
38994;SDS011;24769;18.712;99.000;2023-04-30T13:15:42;52.80;;;44.80;;
38994;SDS011;24769;18.712;99.000;2023-04-30T13:18:09;51.40;;;43.80;;
38994;SDS011;24769;18.712;99.000;2023-04-30T13:20:36;50.00;;;43.00;;
38994;SDS011;24769;18.712;99.000;2023-04-30T13:23:04;45.80;;;38.20;;
38994;SDS011;24769;18.712;99.000;2023-04-30T13:25:31;50.20;;;43.20;;
38994;SDS011;24769;18.712;99.000;2023-04-30T13:27:58;49.40;;;42.20;;
38994;SDS011;24769;18.712;99.000;2023-04-30T13:30:25;51.00;;;43.20;;
38994;SDS011;24769;18.712;99.000;2023-04-30T13:32:51;42.60;;;37.60;;
38994;SDS011;24769;18.712;99.000;2023-04-30T13:35:18;48.40;;;41.60;;
38994;SDS011;24769;18.712;99.000;2023-04-30T13:37:45;49.00;;;42.00;;
38994;SDS011;24769;18.712;99.000;2023-04-30T13:40:17;50.40;;;43.00;;
38994;SDS011;24769;18.712;99.000;2023-04-30T13:42:45;46.00;;;39.60;;
38994;SDS011;24769;18.712;99.000;2023-04-30T13:45:13;49.40;;;42.40;;
38994;SDS011;24769;18.712;99.000;2023-04-30T13:47:40;47.00;;;40.20;;
38994;SDS011;24769;18.712;99.000;2023-04-30T13:50:08;50.00;;;42.80;;
38994;SDS011;24769;18.712;99.000;2023-04-30T13:52:35;45.00;;;38.80;;
38994;SDS011;24769;18.712;99.000;2023-04-30T13:55:04;45.60;;;39.40;;
38994;SDS011;24769;18.712;99.000;2023-04-30T13:57:31;47.40;;;40.40;;
38994;SDS011;24769;18.712;99.000;2023-04-30T13:59:58;46.00;;;39.20;;
38994;SDS011;24769;18.712;99.000;2023-04-30T14:02:25;51.60;;;44.00;;
38994;SDS011;24769;18.712;99.000;2023-04-30T14:04:55;51.60;;;44.00;;
38994;SDS011;24769;18.712;99.000;2023-04-30T14:07:23;49.60;;;42.60;;
38994;SDS011;24769;18.712;99.000;2023-04-30T14:09:50;49.00;;;41.20;;
38994;SDS011;24769;18.712;99.000;2023-04-30T14:12:17;49.60;;;41.40;;
38994;SDS011;24769;18.712;99.000;2023-04-30T14:14:45;48.60;;;41.60;;
38994;SDS011;24769;18.712;99.000;2023-04-30T14:17:12;52.00;;;44.00;;
38994;SDS011;24769;18.712;99.000;2023-04-30T14:19:39;51.25;;;44.00;;
38994;SDS011;24769;18.712;99.000;2023-04-30T14:22:05;51.80;;;44.00;;
38994;SDS011;24769;18.712;99.000;2023-04-30T14:24:32;49.75;;;42.75;;
38994;SDS011;24769;18.712;99.000;2023-04-30T14:26:59;50.75;;;42.75;;
38994;SDS011;24769;18.712;99.000;2023-04-30T14:29:28;50.75;;;43.25;;
38994;SDS011;24769;18.712;99.000;2023-04-30T14:31:54;55.00;;;46.00;;
38994;SDS011;24769;18.712;99.000;2023-04-30T14:34:21;52.25;;;44.50;;
38994;SDS011;24769;18.712;99.000;2023-04-30T14:36:48;55.25;;;46.00;;
38994;SDS011;24769;18.712;99.000;2023-04-30T14:39:15;52.25;;;44.25;;
38994;SDS011;24769;18.712;99.000;2023-04-30T14:41:42;53.00;;;45.00;;
38994;SDS011;24769;18.712;99.000;2023-04-30T14:44:09;52.75;;;44.25;;
38994;SDS011;24769;18.712;99.000;2023-04-30T14:46:35;54.50;;;45.25;;
38994;SDS011;24769;18.712;99.000;2023-04-30T14:49:02;53.00;;;45.00;;
38994;SDS011;24769;18.712;99.000;2023-04-30T14:51:29;51.00;;;43.25;;
38994;SDS011;24769;18.712;99.000;2023-04-30T14:53:56;55.50;;;46.75;;
38994;SDS011;24769;18.712;99.000;2023-04-30T14:56:23;53.50;;;45.00;;
38994;SDS011;24769;18.712;99.000;2023-04-30T14:58:50;48.25;;;41.25;;
38994;SDS011;24769;18.712;99.000;2023-04-30T15:01:17;49.75;;;42.50;;